sensor_id;sensor_type;location;lat;lon;timestamp;pressure;altitude;pressure_sealevel;temperature
54746;BMP180;40640;48.130;11.356;2023-04-01T00:02:16;94407.00;;;9.80
54746;BMP180;40640;48.130;11.356;2023-04-01T00:06:19;94390.00;;;9.90
54746;BMP180;40640;48.130;11.356;2023-04-01T00:10:23;94391.00;;;10.00
54746;BMP180;40640;48.130;11.356;2023-04-01T00:14:26;94389.00;;;9.90
54746;BMP180;40640;48.130;11.356;2023-04-01T00:18:30;94374.00;;;10.00
54746;BMP180;40640;48.130;11.356;2023-04-01T00:22:33;94370.00;;;9.90
54746;BMP180;40640;48.130;11.356;2023-04-01T00:26:37;94371.00;;;9.60
54746;BMP180;40640;48.130;11.356;2023-04-01T00:30:40;94377.00;;;9.80
54746;BMP180;40640;48.130;11.356;2023-04-01T00:34:43;94375.00;;;9.60
54746;BMP180;40640;48.130;11.356;2023-04-01T00:38:47;94385.00;;;9.80
54746;BMP180;40640;48.130;11.356;2023-04-01T00:42:51;94363.00;;;9.70
54746;BMP180;40640;48.130;11.356;2023-04-01T00:46:54;94362.00;;;9.80
54746;BMP180;40640;48.130;11.356;2023-04-01T00:50:59;94362.00;;;9.80
54746;BMP180;40640;48.130;11.356;2023-04-01T00:55:06;94363.00;;;9.60
54746;BMP180;40640;48.130;11.356;2023-04-01T00:59:14;94369.00;;;9.50
54746;BMP180;40640;48.130;11.356;2023-04-01T01:03:18;94365.00;;;9.50
54746;BMP180;40640;48.130;11.356;2023-04-01T01:07:27;94375.00;;;9.60
54746;BMP180;40640;48.130;11.356;2023-04-01T01:11:37;94369.00;;;9.70
54746;BMP180;40640;48.130;11.356;2023-04-01T01:15:47;94367.00;;;9.60
54746;BMP180;40640;48.130;11.356;2023-04-01T01:20:10;94361.00;;;9.60
54746;BMP180;40640;48.130;11.356;2023-04-01T01:24:51;94365.00;;;9.60
54746;BMP180;40640;48.130;11.356;2023-04-01T01:29:04;94359.00;;;9.60
54746;BMP180;40640;48.130;11.356;2023-04-01T01:33:32;94355.00;;;9.30
54746;BMP180;40640;48.130;11.356;2023-04-01T01:37:39;94360.00;;;9.50
54746;BMP180;40640;48.130;11.356;2023-04-01T01:41:45;94355.00;;;9.50
54746;BMP180;40640;48.130;11.356;2023-04-01T01:45:53;94335.00;;;9.50
54746;BMP180;40640;48.130;11.356;2023-04-01T01:49:57;94343.00;;;9.40
54746;BMP180;40640;48.130;11.356;2023-04-01T01:54:01;94351.00;;;9.30
54746;BMP180;40640;48.130;11.356;2023-04-01T01:58:10;94351.00;;;9.50
54746;BMP180;40640;48.130;11.356;2023-04-01T02:02:15;94357.00;;;9.40
54746;BMP180;40640;48.130;11.356;2023-04-01T02:06:21;94356.00;;;9.20
54746;BMP180;40640;48.130;11.356;2023-04-01T02:10:26;94363.00;;;9.20
54746;BMP180;40640;48.130;11.356;2023-04-01T02:14:33;94349.00;;;9.40
54746;BMP180;40640;48.130;11.356;2023-04-01T02:18:41;94358.00;;;9.40
54746;BMP180;40640;48.130;11.356;2023-04-01T02:22:47;94346.00;;;9.30
54746;BMP180;40640;48.130;11.356;2023-04-01T02:26:53;94358.00;;;9.20
54746;BMP180;40640;48.130;11.356;2023-04-01T02:30:57;94355.00;;;9.30
54746;BMP180;40640;48.130;11.356;2023-04-01T02:35:05;94354.00;;;9.30
54746;BMP180;40640;48.130;11.356;2023-04-01T02:39:09;94374.00;;;9.20
54746;BMP180;40640;48.130;11.356;2023-04-01T02:43:13;94372.00;;;9.30
54746;BMP180;40640;48.130;11.356;2023-04-01T02:47:16;94376.00;;;9.10
54746;BMP180;40640;48.130;11.356;2023-04-01T02:51:19;94368.00;;;9.00
54746;BMP180;40640;48.130;11.356;2023-04-01T02:55:21;94373.00;;;9.00
54746;BMP180;40640;48.130;11.356;2023-04-01T02:59:26;94369.00;;;9.30
54746;BMP180;40640;48.130;11.356;2023-04-01T03:03:30;94379.00;;;9.00
54746;BMP180;40640;48.130;11.356;2023-04-01T03:07:33;94386.00;;;9.10
54746;BMP180;40640;48.130;11.356;2023-04-01T03:11:36;94378.00;;;9.00
54746;BMP180;40640;48.130;11.356;2023-04-01T03:15:40;94369.00;;;9.20
54746;BMP180;40640;48.130;11.356;2023-04-01T03:19:43;94377.00;;;8.80
54746;BMP180;40640;48.130;11.356;2023-04-01T03:23:46;94369.00;;;9.00
54746;BMP180;40640;48.130;11.356;2023-04-01T03:27:49;94376.00;;;8.90
54746;BMP180;40640;48.130;11.356;2023-04-01T03:31:53;94396.00;;;9.00
54746;BMP180;40640;48.130;11.356;2023-04-01T03:35:59;94392.00;;;8.90
54746;BMP180;40640;48.130;11.356;2023-04-01T03:40:02;94393.00;;;9.00
54746;BMP180;40640;48.130;11.356;2023-04-01T03:44:06;94378.00;;;8.90
54746;BMP180;40640;48.130;11.356;2023-04-01T03:48:10;94379.00;;;8.60
54746;BMP180;40640;48.130;11.356;2023-04-01T03:52:13;94380.00;;;8.60
54746;BMP180;40640;48.130;11.356;2023-04-01T03:56:16;94388.00;;;8.60
54746;BMP180;40640;48.130;11.356;2023-04-01T04:00:19;94383.00;;;8.50
54746;BMP180;40640;48.130;11.356;2023-04-01T04:04:29;94394.00;;;9.00
54746;BMP180;40640;48.130;11.356;2023-04-01T04:08:32;94404.00;;;8.90
54746;BMP180;40640;48.130;11.356;2023-04-01T04:12:35;94403.00;;;8.50
54746;BMP180;40640;48.130;11.356;2023-04-01T04:16:38;94416.00;;;8.50
54746;BMP180;40640;48.130;11.356;2023-04-01T04:20:45;94401.00;;;8.50
54746;BMP180;40640;48.130;11.356;2023-04-01T04:24:49;94394.00;;;8.80
54746;BMP180;40640;48.130;11.356;2023-04-01T04:28:54;94396.00;;;8.90
54746;BMP180;40640;48.130;11.356;2023-04-01T04:32:57;94390.00;;;8.60
54746;BMP180;40640;48.130;11.356;2023-04-01T04:37:01;94399.00;;;8.60
54746;BMP180;40640;48.130;11.356;2023-04-01T04:41:09;94413.00;;;8.60
54746;BMP180;40640;48.130;11.356;2023-04-01T04:45:14;94415.00;;;8.60
54746;BMP180;40640;48.130;11.356;2023-04-01T04:49:26;94420.00;;;8.60
54746;BMP180;40640;48.130;11.356;2023-04-01T04:53:31;94410.00;;;8.80
54746;BMP180;40640;48.130;11.356;2023-04-01T04:57:34;94422.00;;;8.90
54746;BMP180;40640;48.130;11.356;2023-04-01T05:01:37;94415.00;;;8.70
54746;BMP180;40640;48.130;11.356;2023-04-01T05:05:40;94424.00;;;8.90
54746;BMP180;40640;48.130;11.356;2023-04-01T05:09:51;94409.00;;;8.70
54746;BMP180;40640;48.130;11.356;2023-04-01T05:13:54;94424.00;;;9.00
54746;BMP180;40640;48.130;11.356;2023-04-01T05:17:57;94415.00;;;8.80
54746;BMP180;40640;48.130;11.356;2023-04-01T05:22:00;94413.00;;;8.90
54746;BMP180;40640;48.130;11.356;2023-04-01T05:26:06;94414.00;;;9.00
54746;BMP180;40640;48.130;11.356;2023-04-01T05:30:10;94421.00;;;8.90
54746;BMP180;40640;48.130;11.356;2023-04-01T05:34:18;94407.00;;;9.10
54746;BMP180;40640;48.130;11.356;2023-04-01T05:38:21;94405.00;;;9.00
54746;BMP180;40640;48.130;11.356;2023-04-01T05:42:26;94417.00;;;9.10
54746;BMP180;40640;48.130;11.356;2023-04-01T05:46:29;94423.00;;;9.20
54746;BMP180;40640;48.130;11.356;2023-04-01T05:50:40;94415.00;;;9.00
54746;BMP180;40640;48.130;11.356;2023-04-01T05:54:45;94412.00;;;9.20
54746;BMP180;40640;48.130;11.356;2023-04-01T05:58:51;94416.00;;;9.20
54746;BMP180;40640;48.130;11.356;2023-04-01T06:02:58;94416.00;;;9.10
54746;BMP180;40640;48.130;11.356;2023-04-01T06:07:08;94413.00;;;9.40
54746;BMP180;40640;48.130;11.356;2023-04-01T06:11:28;94421.00;;;9.40
54746;BMP180;40640;48.130;11.356;2023-04-01T06:15:40;94416.00;;;9.40
54746;BMP180;40640;48.130;11.356;2023-04-01T06:19:52;94421.00;;;9.80
54746;BMP180;40640;48.130;11.356;2023-04-01T06:24:05;94417.00;;;10.10
54746;BMP180;40640;48.130;11.356;2023-04-01T06:28:39;94405.00;;;10.20
54746;BMP180;40640;48.130;11.356;2023-04-01T06:33:05;94407.00;;;10.40
54746;BMP180;40640;48.130;11.356;2023-04-01T06:37:23;94415.00;;;11.20
54746;BMP180;40640;48.130;11.356;2023-04-01T06:41:56;94411.00;;;11.70
54746;BMP180;40640;48.130;11.356;2023-04-01T06:46:09;94422.00;;;12.40
54746;BMP180;40640;48.130;11.356;2023-04-01T06:50:48;94426.00;;;12.40
54746;BMP180;40640;48.130;11.356;2023-04-01T06:55:29;94433.00;;;12.40
54746;BMP180;40640;48.130;11.356;2023-04-01T07:00:04;94444.00;;;13.20
54746;BMP180;40640;48.130;11.356;2023-04-01T07:04:11;94447.00;;;12.80
54746;BMP180;40640;48.130;11.356;2023-04-01T07:08:21;94441.00;;;12.70
54746;BMP180;40640;48.130;11.356;2023-04-01T07:12:33;94435.00;;;12.80
54746;BMP180;40640;48.130;11.356;2023-04-01T07:17:00;94443.00;;;13.50
54746;BMP180;40640;48.130;11.356;2023-04-01T07:21:10;94462.00;;;14.30
54746;BMP180;40640;48.130;11.356;2023-04-01T07:25:21;94446.00;;;14.20
54746;BMP180;40640;48.130;11.356;2023-04-01T07:29:42;94438.00;;;14.30
54746;BMP180;40640;48.130;11.356;2023-04-01T07:33:55;94454.00;;;14.80
54746;BMP180;40640;48.130;11.356;2023-04-01T07:38:11;94444.00;;;14.40
54746;BMP180;40640;48.130;11.356;2023-04-01T07:42:27;94462.00;;;14.00
54746;BMP180;40640;48.130;11.356;2023-04-01T07:46:46;94454.00;;;13.60
54746;BMP180;40640;48.130;11.356;2023-04-01T07:50:55;94462.00;;;13.60
54746;BMP180;40640;48.130;11.356;2023-04-01T07:55:05;94462.00;;;13.70
54746;BMP180;40640;48.130;11.356;2023-04-01T07:59:17;94460.00;;;13.30
54746;BMP180;40640;48.130;11.356;2023-04-01T08:03:42;94441.00;;;13.00
54746;BMP180;40640;48.130;11.356;2023-04-01T08:07:57;94446.00;;;12.70
54746;BMP180;40640;48.130;11.356;2023-04-01T08:12:29;94461.00;;;13.00
54746;BMP180;40640;48.130;11.356;2023-04-01T08:16:42;94448.00;;;12.80
54746;BMP180;40640;48.130;11.356;2023-04-01T08:20:58;94451.00;;;13.00
54746;BMP180;40640;48.130;11.356;2023-04-01T08:25:04;94449.00;;;12.80
54746;BMP180;40640;48.130;11.356;2023-04-01T08:29:12;94447.00;;;13.00
54746;BMP180;40640;48.130;11.356;2023-04-01T08:33:23;94448.00;;;13.20
54746;BMP180;40640;48.130;11.356;2023-04-01T08:37:35;94458.00;;;13.80
54746;BMP180;40640;48.130;11.356;2023-04-01T08:41:59;94443.00;;;13.30
54746;BMP180;40640;48.130;11.356;2023-04-01T08:47:08;94450.00;;;15.30
54746;BMP180;40640;48.130;11.356;2023-04-01T08:51:42;94435.00;;;15.40
54746;BMP180;40640;48.130;11.356;2023-04-01T08:55:56;94434.00;;;14.30
54746;BMP180;40640;48.130;11.356;2023-04-01T09:00:13;94457.00;;;14.90
54746;BMP180;40640;48.130;11.356;2023-04-01T09:09:34;94442.00;;;16.90
54746;BMP180;40640;48.130;11.356;2023-04-01T09:18:35;94439.00;;;14.90
54746;BMP180;40640;48.130;11.356;2023-04-01T09:22:50;94441.00;;;14.90
54746;BMP180;40640;48.130;11.356;2023-04-01T09:27:04;94434.00;;;15.30
54746;BMP180;40640;48.130;11.356;2023-04-01T09:31:21;94427.00;;;15.40
54746;BMP180;40640;48.130;11.356;2023-04-01T09:35:49;94441.00;;;17.90
54746;BMP180;40640;48.130;11.356;2023-04-01T09:40:09;94417.00;;;18.00
54746;BMP180;40640;48.130;11.356;2023-04-01T09:44:21;94424.00;;;17.70
54746;BMP180;40640;48.130;11.356;2023-04-01T09:48:51;94416.00;;;18.00
54746;BMP180;40640;48.130;11.356;2023-04-01T09:53:07;94421.00;;;17.30
54746;BMP180;40640;48.130;11.356;2023-04-01T10:03:00;94422.00;;;16.10
54746;BMP180;40640;48.130;11.356;2023-04-01T10:07:45;94418.00;;;15.90
54746;BMP180;40640;48.130;11.356;2023-04-01T10:16:51;94451.00;;;15.30
54746;BMP180;40640;48.130;11.356;2023-04-01T10:21:20;94424.00;;;15.30
54746;BMP180;40640;48.130;11.356;2023-04-01T10:25:37;94432.00;;;15.00
54746;BMP180;40640;48.130;11.356;2023-04-01T10:30:06;94438.00;;;14.60
54746;BMP180;40640;48.130;11.356;2023-04-01T10:34:47;94429.00;;;14.60
54746;BMP180;40640;48.130;11.356;2023-04-01T10:39:06;94434.00;;;14.40
54746;BMP180;40640;48.130;11.356;2023-04-01T10:43:44;94444.00;;;14.10
54746;BMP180;40640;48.130;11.356;2023-04-01T10:48:23;94440.00;;;13.60
54746;BMP180;40640;48.130;11.356;2023-04-01T11:03:11;94451.00;;;13.20
54746;BMP180;40640;48.130;11.356;2023-04-01T11:12:46;94462.00;;;13.30
54746;BMP180;40640;48.130;11.356;2023-04-01T11:26:29;94467.00;;;13.30
54746;BMP180;40640;48.130;11.356;2023-04-01T11:31:17;94474.00;;;13.50
54746;BMP180;40640;48.130;11.356;2023-04-01T11:35:36;94484.00;;;13.40
54746;BMP180;40640;48.130;11.356;2023-04-01T11:39:58;94478.00;;;13.10
54746;BMP180;40640;48.130;11.356;2023-04-01T11:44:33;94482.00;;;13.00
54746;BMP180;40640;48.130;11.356;2023-04-01T11:49:05;94483.00;;;12.60
54746;BMP180;40640;48.130;11.356;2023-04-01T11:53:24;94478.00;;;12.40
54746;BMP180;40640;48.130;11.356;2023-04-01T11:57:43;94480.00;;;12.20
54746;BMP180;40640;48.130;11.356;2023-04-01T12:01:56;94472.00;;;12.30
54746;BMP180;40640;48.130;11.356;2023-04-01T12:06:08;94477.00;;;12.30
54746;BMP180;40640;48.130;11.356;2023-04-01T12:10:18;94481.00;;;12.20
54746;BMP180;40640;48.130;11.356;2023-04-01T12:14:27;94471.00;;;12.10
54746;BMP180;40640;48.130;11.356;2023-04-01T12:18:37;94476.00;;;12.00
54746;BMP180;40640;48.130;11.356;2023-04-01T12:22:49;94478.00;;;11.80
54746;BMP180;40640;48.130;11.356;2023-04-01T12:27:02;94460.00;;;11.80
54746;BMP180;40640;48.130;11.356;2023-04-01T12:31:25;94459.00;;;11.80
54746;BMP180;40640;48.130;11.356;2023-04-01T12:35:37;94466.00;;;11.80
54746;BMP180;40640;48.130;11.356;2023-04-01T12:39:59;94467.00;;;11.60
54746;BMP180;40640;48.130;11.356;2023-04-01T12:44:32;94472.00;;;11.60
54746;BMP180;40640;48.130;11.356;2023-04-01T12:49:04;94471.00;;;11.70
54746;BMP180;40640;48.130;11.356;2023-04-01T12:53:25;94494.00;;;11.80
54746;BMP180;40640;48.130;11.356;2023-04-01T13:02:30;94471.00;;;11.50
54746;BMP180;40640;48.130;11.356;2023-04-01T13:06:44;94483.00;;;11.50
54746;BMP180;40640;48.130;11.356;2023-04-01T13:11:02;94490.00;;;11.60
54746;BMP180;40640;48.130;11.356;2023-04-01T13:15:18;94487.00;;;11.30
54746;BMP180;40640;48.130;11.356;2023-04-01T13:19:31;94483.00;;;11.20
54746;BMP180;40640;48.130;11.356;2023-04-01T13:23:47;94501.00;;;11.50
54746;BMP180;40640;48.130;11.356;2023-04-01T13:27:55;94517.00;;;11.50
54746;BMP180;40640;48.130;11.356;2023-04-01T13:32:12;94511.00;;;11.40
54746;BMP180;40640;48.130;11.356;2023-04-01T13:36:27;94493.00;;;11.40
54746;BMP180;40640;48.130;11.356;2023-04-01T13:40:33;94501.00;;;11.40
54746;BMP180;40640;48.130;11.356;2023-04-01T13:44:47;94500.00;;;11.60
54746;BMP180;40640;48.130;11.356;2023-04-01T13:49:24;94500.00;;;11.70
54746;BMP180;40640;48.130;11.356;2023-04-01T13:53:46;94494.00;;;11.60
54746;BMP180;40640;48.130;11.356;2023-04-01T13:58:20;94496.00;;;11.90
54746;BMP180;40640;48.130;11.356;2023-04-01T14:02:50;94495.00;;;11.70
54746;BMP180;40640;48.130;11.356;2023-04-01T14:07:12;94508.00;;;11.60
54746;BMP180;40640;48.130;11.356;2023-04-01T14:11:22;94496.00;;;11.70
54746;BMP180;40640;48.130;11.356;2023-04-01T14:15:47;94495.00;;;11.70
54746;BMP180;40640;48.130;11.356;2023-04-01T14:24:42;94494.00;;;11.60
54746;BMP180;40640;48.130;11.356;2023-04-01T14:28:56;94501.00;;;11.50
54746;BMP180;40640;48.130;11.356;2023-04-01T14:33:15;94498.00;;;11.30
54746;BMP180;40640;48.130;11.356;2023-04-01T14:37:56;94509.00;;;11.30
54746;BMP180;40640;48.130;11.356;2023-04-01T14:42:13;94504.00;;;11.50
54746;BMP180;40640;48.130;11.356;2023-04-01T14:46:34;94508.00;;;11.30
54746;BMP180;40640;48.130;11.356;2023-04-01T14:50:46;94494.00;;;11.20
54746;BMP180;40640;48.130;11.356;2023-04-01T14:54:51;94510.00;;;11.30
54746;BMP180;40640;48.130;11.356;2023-04-01T14:58:57;94512.00;;;11.10
54746;BMP180;40640;48.130;11.356;2023-04-01T15:03:08;94516.00;;;11.20
54746;BMP180;40640;48.130;11.356;2023-04-01T15:07:37;94510.00;;;11.40
54746;BMP180;40640;48.130;11.356;2023-04-01T15:11:55;94500.00;;;11.60
54746;BMP180;40640;48.130;11.356;2023-04-01T15:16:08;94512.00;;;11.50
54746;BMP180;40640;48.130;11.356;2023-04-01T15:20:28;94516.00;;;11.40
54746;BMP180;40640;48.130;11.356;2023-04-01T15:24:41;94514.00;;;11.50
54746;BMP180;40640;48.130;11.356;2023-04-01T15:28:53;94508.00;;;11.50
54746;BMP180;40640;48.130;11.356;2023-04-01T15:33:12;94513.00;;;11.80
54746;BMP180;40640;48.130;11.356;2023-04-01T15:37:26;94523.00;;;11.70
54746;BMP180;40640;48.130;11.356;2023-04-01T15:41:39;94515.00;;;11.50
54746;BMP180;40640;48.130;11.356;2023-04-01T15:45:51;94527.00;;;11.40
54746;BMP180;40640;48.130;11.356;2023-04-01T15:59:01;94523.00;;;11.60
54746;BMP180;40640;48.130;11.356;2023-04-01T16:03:17;94520.00;;;11.50
54746;BMP180;40640;48.130;11.356;2023-04-01T16:12:04;94532.00;;;11.30
54746;BMP180;40640;48.130;11.356;2023-04-01T16:16:17;94529.00;;;11.60
54746;BMP180;40640;48.130;11.356;2023-04-01T16:20:27;94532.00;;;11.50
54746;BMP180;40640;48.130;11.356;2023-04-01T16:24:41;94527.00;;;11.40
54746;BMP180;40640;48.130;11.356;2023-04-01T16:28:53;94536.00;;;11.20
54746;BMP180;40640;48.130;11.356;2023-04-01T16:33:01;94526.00;;;11.30
54746;BMP180;40640;48.130;11.356;2023-04-01T16:37:07;94531.00;;;11.20
54746;BMP180;40640;48.130;11.356;2023-04-01T16:41:17;94531.00;;;11.10
54746;BMP180;40640;48.130;11.356;2023-04-01T16:45:30;94535.00;;;11.10
54746;BMP180;40640;48.130;11.356;2023-04-01T16:49:37;94530.00;;;11.10
54746;BMP180;40640;48.130;11.356;2023-04-01T16:53:45;94542.00;;;11.00
54746;BMP180;40640;48.130;11.356;2023-04-01T16:57:51;94535.00;;;11.10
54746;BMP180;40640;48.130;11.356;2023-04-01T17:02:02;94552.00;;;10.90
54746;BMP180;40640;48.130;11.356;2023-04-01T17:06:16;94551.00;;;11.20
54746;BMP180;40640;48.130;11.356;2023-04-01T17:10:37;94545.00;;;11.10
54746;BMP180;40640;48.130;11.356;2023-04-01T17:14:49;94548.00;;;11.00
54746;BMP180;40640;48.130;11.356;2023-04-01T17:19:00;94538.00;;;11.00
54746;BMP180;40640;48.130;11.356;2023-04-01T17:23:12;94556.00;;;11.00
54746;BMP180;40640;48.130;11.356;2023-04-01T17:27:24;94552.00;;;10.80
54746;BMP180;40640;48.130;11.356;2023-04-01T17:31:43;94558.00;;;10.90
54746;BMP180;40640;48.130;11.356;2023-04-01T17:35:56;94555.00;;;10.60
54746;BMP180;40640;48.130;11.356;2023-04-01T17:40:26;94557.00;;;10.70
54746;BMP180;40640;48.130;11.356;2023-04-01T17:44:38;94556.00;;;10.90
54746;BMP180;40640;48.130;11.356;2023-04-01T17:48:50;94558.00;;;10.70
54746;BMP180;40640;48.130;11.356;2023-04-01T17:53:14;94570.00;;;10.80
54746;BMP180;40640;48.130;11.356;2023-04-01T17:57:30;94568.00;;;10.90
54746;BMP180;40640;48.130;11.356;2023-04-01T18:01:46;94573.00;;;10.70
54746;BMP180;40640;48.130;11.356;2023-04-01T18:06:02;94572.00;;;10.90
54746;BMP180;40640;48.130;11.356;2023-04-01T18:10:23;94573.00;;;10.90
54746;BMP180;40640;48.130;11.356;2023-04-01T18:14:59;94602.00;;;11.00
54746;BMP180;40640;48.130;11.356;2023-04-01T18:19:12;94591.00;;;10.90
54746;BMP180;40640;48.130;11.356;2023-04-01T18:23:28;94623.00;;;10.80
54746;BMP180;40640;48.130;11.356;2023-04-01T18:27:36;94604.00;;;10.80
54746;BMP180;40640;48.130;11.356;2023-04-01T18:31:42;94615.00;;;10.80
54746;BMP180;40640;48.130;11.356;2023-04-01T18:35:50;94624.00;;;10.80
54746;BMP180;40640;48.130;11.356;2023-04-01T18:39:58;94619.00;;;10.80
54746;BMP180;40640;48.130;11.356;2023-04-01T18:44:26;94622.00;;;10.70
54746;BMP180;40640;48.130;11.356;2023-04-01T18:48:34;94623.00;;;10.60
54746;BMP180;40640;48.130;11.356;2023-04-01T18:52:42;94620.00;;;10.50
54746;BMP180;40640;48.130;11.356;2023-04-01T18:56:46;94628.00;;;10.70
54746;BMP180;40640;48.130;11.356;2023-04-01T19:01:04;94634.00;;;10.40
54746;BMP180;40640;48.130;11.356;2023-04-01T19:05:12;94633.00;;;10.40
54746;BMP180;40640;48.130;11.356;2023-04-01T19:09:20;94625.00;;;10.50
54746;BMP180;40640;48.130;11.356;2023-04-01T19:13:28;94631.00;;;10.40
54746;BMP180;40640;48.130;11.356;2023-04-01T19:17:46;94637.00;;;10.40
54746;BMP180;40640;48.130;11.356;2023-04-01T19:21:55;94660.00;;;10.00
54746;BMP180;40640;48.130;11.356;2023-04-01T19:26:04;94655.00;;;10.10
54746;BMP180;40640;48.130;11.356;2023-04-01T19:30:20;94666.00;;;10.40
54746;BMP180;40640;48.130;11.356;2023-04-01T19:34:39;94662.00;;;10.50
54746;BMP180;40640;48.130;11.356;2023-04-01T19:38:52;94661.00;;;10.40
54746;BMP180;40640;48.130;11.356;2023-04-01T19:43:00;94666.00;;;10.10
54746;BMP180;40640;48.130;11.356;2023-04-01T19:47:12;94673.00;;;10.30
54746;BMP180;40640;48.130;11.356;2023-04-01T19:51:24;94676.00;;;10.00
54746;BMP180;40640;48.130;11.356;2023-04-01T19:55:34;94682.00;;;10.20
54746;BMP180;40640;48.130;11.356;2023-04-01T19:59:44;94680.00;;;9.90
54746;BMP180;40640;48.130;11.356;2023-04-01T20:03:54;94683.00;;;10.10
54746;BMP180;40640;48.130;11.356;2023-04-01T20:08:06;94683.00;;;10.10
54746;BMP180;40640;48.130;11.356;2023-04-01T20:12:16;94689.00;;;10.10
54746;BMP180;40640;48.130;11.356;2023-04-01T20:16:50;94694.00;;;10.00
54746;BMP180;40640;48.130;11.356;2023-04-01T20:20:55;94694.00;;;9.80
54746;BMP180;40640;48.130;11.356;2023-04-01T20:25:05;94691.00;;;9.90
54746;BMP180;40640;48.130;11.356;2023-04-01T20:29:27;94697.00;;;9.80
54746;BMP180;40640;48.130;11.356;2023-04-01T20:33:58;94694.00;;;9.70
54746;BMP180;40640;48.130;11.356;2023-04-01T20:38:25;94699.00;;;9.50
54746;BMP180;40640;48.130;11.356;2023-04-01T20:42:45;94701.00;;;9.80
54746;BMP180;40640;48.130;11.356;2023-04-01T20:46:57;94702.00;;;9.70
54746;BMP180;40640;48.130;11.356;2023-04-01T20:51:05;94702.00;;;9.60
54746;BMP180;40640;48.130;11.356;2023-04-01T20:55:47;94707.00;;;9.50
54746;BMP180;40640;48.130;11.356;2023-04-01T21:00:07;94703.00;;;9.50
54746;BMP180;40640;48.130;11.356;2023-04-01T21:04:22;94714.00;;;9.70
54746;BMP180;40640;48.130;11.356;2023-04-01T21:08:36;94720.00;;;9.40
54746;BMP180;40640;48.130;11.356;2023-04-01T21:12:45;94716.00;;;9.50
54746;BMP180;40640;48.130;11.356;2023-04-01T21:16:55;94726.00;;;9.60
54746;BMP180;40640;48.130;11.356;2023-04-01T21:25:38;94733.00;;;9.60
54746;BMP180;40640;48.130;11.356;2023-04-01T21:29:51;94743.00;;;9.50
54746;BMP180;40640;48.130;11.356;2023-04-01T21:34:07;94748.00;;;9.40
54746;BMP180;40640;48.130;11.356;2023-04-01T21:38:34;94739.00;;;9.60
54746;BMP180;40640;48.130;11.356;2023-04-01T21:42:45;94746.00;;;9.60
54746;BMP180;40640;48.130;11.356;2023-04-01T21:47:06;94750.00;;;9.70
54746;BMP180;40640;48.130;11.356;2023-04-01T22:00:53;94752.00;;;9.60
54746;BMP180;40640;48.130;11.356;2023-04-01T22:05:06;94755.00;;;9.60
54746;BMP180;40640;48.130;11.356;2023-04-01T22:09:18;94766.00;;;9.50
54746;BMP180;40640;48.130;11.356;2023-04-01T22:13:30;94760.00;;;9.40
54746;BMP180;40640;48.130;11.356;2023-04-01T22:17:39;94768.00;;;9.60
54746;BMP180;40640;48.130;11.356;2023-04-01T22:21:50;94760.00;;;9.60
54746;BMP180;40640;48.130;11.356;2023-04-01T22:26:08;94760.00;;;9.80
54746;BMP180;40640;48.130;11.356;2023-04-01T22:30:18;94773.00;;;9.80
54746;BMP180;40640;48.130;11.356;2023-04-01T22:34:27;94771.00;;;9.40
54746;BMP180;40640;48.130;11.356;2023-04-01T22:38:49;94759.00;;;9.50
54746;BMP180;40640;48.130;11.356;2023-04-01T22:42:59;94770.00;;;9.60
54746;BMP180;40640;48.130;11.356;2023-04-01T22:47:10;94776.00;;;9.80
54746;BMP180;40640;48.130;11.356;2023-04-01T22:51:20;94781.00;;;9.60
54746;BMP180;40640;48.130;11.356;2023-04-01T22:55:25;94783.00;;;9.60
54746;BMP180;40640;48.130;11.356;2023-04-01T22:59:35;94781.00;;;9.40
54746;BMP180;40640;48.130;11.356;2023-04-01T23:03:41;94783.00;;;9.30
54746;BMP180;40640;48.130;11.356;2023-04-01T23:07:52;94786.00;;;9.40
54746;BMP180;40640;48.130;11.356;2023-04-01T23:11:58;94791.00;;;9.40
54746;BMP180;40640;48.130;11.356;2023-04-01T23:16:01;94782.00;;;9.40
54746;BMP180;40640;48.130;11.356;2023-04-01T23:20:17;94802.00;;;9.40
54746;BMP180;40640;48.130;11.356;2023-04-01T23:24:27;94798.00;;;9.30
54746;BMP180;40640;48.130;11.356;2023-04-01T23:28:44;94808.00;;;9.50
54746;BMP180;40640;48.130;11.356;2023-04-01T23:32:47;94811.00;;;9.20
54746;BMP180;40640;48.130;11.356;2023-04-01T23:36:54;94814.00;;;9.50
54746;BMP180;40640;48.130;11.356;2023-04-01T23:40:57;94808.00;;;9.50
54746;BMP180;40640;48.130;11.356;2023-04-01T23:45:02;94812.00;;;9.30
54746;BMP180;40640;48.130;11.356;2023-04-01T23:49:10;94816.00;;;9.30
54746;BMP180;40640;48.130;11.356;2023-04-01T23:53:19;94814.00;;;9.40
54746;BMP180;40640;48.130;11.356;2023-04-01T23:57:27;94812.00;;;9.40
